sensor_id;sensor_type;location;lat;lon;timestamp;pressure;altitude;pressure_sealevel;temperature;humidity
36248;BME280;22287;50.824;5.644;2023-02-13T00:00:18;102845.88;;;2.51;80.60
36248;BME280;22287;50.824;5.644;2023-02-13T00:02:45;102847.44;;;2.62;80.83
36248;BME280;22287;50.824;5.644;2023-02-13T00:05:12;102833.56;;;2.88;79.54
36248;BME280;22287;50.824;5.644;2023-02-13T00:07:39;102829.13;;;2.88;79.05
36248;BME280;22287;50.824;5.644;2023-02-13T00:10:06;102830.91;;;2.88;79.28
36248;BME280;22287;50.824;5.644;2023-02-13T00:12:34;102831.09;;;3.22;78.10
36248;BME280;22287;50.824;5.644;2023-02-13T00:15:02;102840.25;;;3.10;78.13
36248;BME280;22287;50.824;5.644;2023-02-13T00:17:29;102828.94;;;2.97;78.83
36248;BME280;22287;50.824;5.644;2023-02-13T00:19:56;102834.63;;;2.81;79.74
36248;BME280;22287;50.824;5.644;2023-02-13T00:22:23;102830.50;;;2.63;79.12
36248;BME280;22287;50.824;5.644;2023-02-13T00:24:50;102827.16;;;2.98;78.55
36248;BME280;22287;50.824;5.644;2023-02-13T00:27:17;102828.81;;;2.59;80.14
36248;BME280;22287;50.824;5.644;2023-02-13T00:29:44;102827.25;;;2.48;80.71
36248;BME280;22287;50.824;5.644;2023-02-13T00:32:12;102830.84;;;2.44;80.36
36248;BME280;22287;50.824;5.644;2023-02-13T00:34:39;102830.16;;;2.32;80.83
36248;BME280;22287;50.824;5.644;2023-02-13T00:37:06;102830.91;;;2.42;80.31
36248;BME280;22287;50.824;5.644;2023-02-13T00:39:33;102828.06;;;2.51;79.71
36248;BME280;22287;50.824;5.644;2023-02-13T00:41:59;102832.72;;;2.40;80.27
36248;BME280;22287;50.824;5.644;2023-02-13T00:44:26;102832.78;;;2.35;81.04
36248;BME280;22287;50.824;5.644;2023-02-13T00:46:53;102826.59;;;2.33;80.84
36248;BME280;22287;50.824;5.644;2023-02-13T00:49:22;102827.53;;;2.31;81.01
36248;BME280;22287;50.824;5.644;2023-02-13T00:51:49;102827.44;;;2.37;81.08
36248;BME280;22287;50.824;5.644;2023-02-13T00:54:15;102823.44;;;2.61;80.29
36248;BME280;22287;50.824;5.644;2023-02-13T00:56:42;102826.25;;;2.52;79.33
36248;BME280;22287;50.824;5.644;2023-02-13T00:59:11;102826.34;;;2.47;79.54
36248;BME280;22287;50.824;5.644;2023-02-13T01:01:38;102824.03;;;2.27;80.38
36248;BME280;22287;50.824;5.644;2023-02-13T01:04:05;102819.13;;;2.52;79.76
36248;BME280;22287;50.824;5.644;2023-02-13T01:06:33;102816.75;;;2.37;80.09
36248;BME280;22287;50.824;5.644;2023-02-13T01:09:01;102818.84;;;2.18;79.95
36248;BME280;22287;50.824;5.644;2023-02-13T01:11:28;102819.72;;;2.19;80.29
36248;BME280;22287;50.824;5.644;2023-02-13T01:13:59;102819.16;;;2.00;80.37
36248;BME280;22287;50.824;5.644;2023-02-13T01:16:25;102818.94;;;2.15;80.03
36248;BME280;22287;50.824;5.644;2023-02-13T01:18:53;102818.09;;;2.10;79.87
36248;BME280;22287;50.824;5.644;2023-02-13T01:21:21;102819.13;;;2.02;80.72
36248;BME280;22287;50.824;5.644;2023-02-13T01:23:52;102811.69;;;2.22;79.88
36248;BME280;22287;50.824;5.644;2023-02-13T01:26:22;102811.03;;;2.08;80.36
36248;BME280;22287;50.824;5.644;2023-02-13T01:28:53;102811.78;;;2.16;80.13
36248;BME280;22287;50.824;5.644;2023-02-13T01:31:20;102805.56;;;2.17;79.80
36248;BME280;22287;50.824;5.644;2023-02-13T01:33:49;102816.03;;;2.29;79.42
36248;BME280;22287;50.824;5.644;2023-02-13T01:36:19;102816.88;;;2.78;77.56
36248;BME280;22287;50.824;5.644;2023-02-13T01:38:46;102817.13;;;2.65;78.58
36248;BME280;22287;50.824;5.644;2023-02-13T01:41:13;102819.28;;;2.43;79.11
36248;BME280;22287;50.824;5.644;2023-02-13T01:43:52;102820.59;;;2.68;78.46
36248;BME280;22287;50.824;5.644;2023-02-13T01:46:23;102820.06;;;2.51;78.96
36248;BME280;22287;50.824;5.644;2023-02-13T01:48:55;102818.59;;;2.33;79.94
36248;BME280;22287;50.824;5.644;2023-02-13T01:51:27;102812.06;;;2.51;79.03
36248;BME280;22287;50.824;5.644;2023-02-13T01:56:33;102821.00;;;2.47;79.68
36248;BME280;22287;50.824;5.644;2023-02-13T01:59:06;102813.66;;;2.60;78.61
36248;BME280;22287;50.824;5.644;2023-02-13T02:01:35;102823.63;;;2.49;78.90
36248;BME280;22287;50.824;5.644;2023-02-13T02:04:15;102809.41;;;2.50;79.12
36248;BME280;22287;50.824;5.644;2023-02-13T02:06:49;102817.19;;;2.60;78.42
36248;BME280;22287;50.824;5.644;2023-02-13T02:09:27;102808.97;;;2.25;79.56
36248;BME280;22287;50.824;5.644;2023-02-13T02:12:02;102813.16;;;2.40;79.11
36248;BME280;22287;50.824;5.644;2023-02-13T02:14:34;102814.19;;;2.31;79.16
36248;BME280;22287;50.824;5.644;2023-02-13T02:17:05;102820.09;;;1.96;80.35
36248;BME280;22287;50.824;5.644;2023-02-13T02:19:40;102819.22;;;1.99;80.72
36248;BME280;22287;50.824;5.644;2023-02-13T02:49:40;102817.91;;;2.22;79.27
36248;BME280;22287;50.824;5.644;2023-02-13T02:52:47;102815.31;;;2.18;79.50
36248;BME280;22287;50.824;5.644;2023-02-13T02:58:13;102807.59;;;2.01;79.01
36248;BME280;22287;50.824;5.644;2023-02-13T03:01:01;102818.41;;;1.91;79.97
36248;BME280;22287;50.824;5.644;2023-02-13T03:03:49;102822.81;;;1.95;79.18
36248;BME280;22287;50.824;5.644;2023-02-13T03:06:51;102808.53;;;1.99;78.94
36248;BME280;22287;50.824;5.644;2023-02-13T03:09:24;102814.28;;;2.26;77.97
36248;BME280;22287;50.824;5.644;2023-02-13T03:12:14;102813.06;;;2.46;77.25
36248;BME280;22287;50.824;5.644;2023-02-13T03:15:01;102809.69;;;2.34;77.70
36248;BME280;22287;50.824;5.644;2023-02-13T03:17:28;102818.66;;;2.30;78.37
36248;BME280;22287;50.824;5.644;2023-02-13T03:23:29;102823.34;;;2.16;78.55
36248;BME280;22287;50.824;5.644;2023-02-13T03:32:14;102821.56;;;1.62;80.52
36248;BME280;22287;50.824;5.644;2023-02-13T03:34:51;102824.13;;;1.68;80.64
36248;BME280;22287;50.824;5.644;2023-02-13T03:37:40;102826.28;;;2.01;79.13
36248;BME280;22287;50.824;5.644;2023-02-13T03:40:39;102822.28;;;1.73;80.31
36248;BME280;22287;50.824;5.644;2023-02-13T03:43:32;102823.13;;;1.76;79.75
36248;BME280;22287;50.824;5.644;2023-02-13T03:46:03;102828.41;;;1.78;79.98
36248;BME280;22287;50.824;5.644;2023-02-13T03:48:34;102809.44;;;1.96;78.50
36248;BME280;22287;50.824;5.644;2023-02-13T03:51:27;102819.56;;;1.76;79.00
36248;BME280;22287;50.824;5.644;2023-02-13T03:53:59;102816.72;;;1.85;79.77
36248;BME280;22287;50.824;5.644;2023-02-13T03:56:30;102817.28;;;2.07;78.56
36248;BME280;22287;50.824;5.644;2023-02-13T03:59:38;102819.13;;;2.03;78.12
36248;BME280;22287;50.824;5.644;2023-02-13T04:02:10;102823.56;;;2.04;77.56
36248;BME280;22287;50.824;5.644;2023-02-13T04:04:51;102827.63;;;2.26;77.19
36248;BME280;22287;50.824;5.644;2023-02-13T04:07:21;102820.59;;;2.21;77.39
36248;BME280;22287;50.824;5.644;2023-02-13T04:10:07;102823.94;;;2.33;76.46
36248;BME280;22287;50.824;5.644;2023-02-13T04:12:41;102820.06;;;2.51;75.86
36248;BME280;22287;50.824;5.644;2023-02-13T04:17:45;102826.44;;;2.43;76.28
36248;BME280;22287;50.824;5.644;2023-02-13T04:20:14;102825.41;;;2.50;77.03
36248;BME280;22287;50.824;5.644;2023-02-13T04:22:46;102829.28;;;2.33;76.91
36248;BME280;22287;50.824;5.644;2023-02-13T04:25:16;102823.59;;;2.01;78.99
36248;BME280;22287;50.824;5.644;2023-02-13T04:27:43;102824.19;;;2.18;78.07
36248;BME280;22287;50.824;5.644;2023-02-13T04:30:10;102822.72;;;1.99;78.01
36248;BME280;22287;50.824;5.644;2023-02-13T04:32:37;102826.47;;;1.89;79.03
36248;BME280;22287;50.824;5.644;2023-02-13T04:35:04;102825.25;;;2.08;78.67
36248;BME280;22287;50.824;5.644;2023-02-13T04:37:31;102826.81;;;2.21;77.46
36248;BME280;22287;50.824;5.644;2023-02-13T04:39:57;102827.41;;;2.38;77.19
36248;BME280;22287;50.824;5.644;2023-02-13T04:42:24;102820.63;;;2.19;76.96
36248;BME280;22287;50.824;5.644;2023-02-13T04:44:51;102825.13;;;2.16;77.61
36248;BME280;22287;50.824;5.644;2023-02-13T04:47:18;102830.84;;;1.93;77.81
36248;BME280;22287;50.824;5.644;2023-02-13T04:49:44;102829.28;;;1.78;77.69
36248;BME280;22287;50.824;5.644;2023-02-13T04:52:11;102828.78;;;1.54;78.28
36248;BME280;22287;50.824;5.644;2023-02-13T04:54:38;102823.31;;;1.61;77.86
36248;BME280;22287;50.824;5.644;2023-02-13T04:57:04;102820.81;;;1.49;78.84
36248;BME280;22287;50.824;5.644;2023-02-13T04:59:31;102814.38;;;1.67;77.83
36248;BME280;22287;50.824;5.644;2023-02-13T05:01:58;102813.03;;;1.36;79.16
36248;BME280;22287;50.824;5.644;2023-02-13T05:04:25;102818.97;;;1.57;78.34
36248;BME280;22287;50.824;5.644;2023-02-13T05:06:52;102811.47;;;1.82;77.09
36248;BME280;22287;50.824;5.644;2023-02-13T05:09:19;102815.22;;;2.22;75.86
36248;BME280;22287;50.824;5.644;2023-02-13T05:11:46;102809.06;;;2.68;75.27
36248;BME280;22287;50.824;5.644;2023-02-13T05:14:13;102806.63;;;2.54;75.42
36248;BME280;22287;50.824;5.644;2023-02-13T05:16:40;102803.97;;;2.98;75.13
36248;BME280;22287;50.824;5.644;2023-02-13T05:19:07;102811.19;;;2.95;75.31
36248;BME280;22287;50.824;5.644;2023-02-13T05:21:34;102807.28;;;3.11;75.12
36248;BME280;22287;50.824;5.644;2023-02-13T05:24:19;102802.19;;;3.01;75.92
36248;BME280;22287;50.824;5.644;2023-02-13T05:26:46;102798.44;;;3.09;75.73
36248;BME280;22287;50.824;5.644;2023-02-13T05:29:13;102809.50;;;3.32;74.40
36248;BME280;22287;50.824;5.644;2023-02-13T05:31:52;102808.38;;;3.01;75.25
36248;BME280;22287;50.824;5.644;2023-02-13T05:34:21;102813.47;;;2.69;75.98
36248;BME280;22287;50.824;5.644;2023-02-13T05:36:49;102812.47;;;2.74;75.69
36248;BME280;22287;50.824;5.644;2023-02-13T05:39:16;102808.94;;;2.74;75.46
36248;BME280;22287;50.824;5.644;2023-02-13T05:41:44;102807.09;;;3.20;74.58
36248;BME280;22287;50.824;5.644;2023-02-13T05:44:11;102814.38;;;2.69;75.03
36248;BME280;22287;50.824;5.644;2023-02-13T05:46:39;102805.72;;;2.57;75.39
36248;BME280;22287;50.824;5.644;2023-02-13T05:49:08;102813.03;;;2.91;74.32
36248;BME280;22287;50.824;5.644;2023-02-13T05:51:35;102808.63;;;2.89;74.24
36248;BME280;22287;50.824;5.644;2023-02-13T05:54:02;102803.28;;;2.45;74.54
36248;BME280;22287;50.824;5.644;2023-02-13T05:56:29;102814.88;;;2.42;75.32
36248;BME280;22287;50.824;5.644;2023-02-13T05:58:56;102806.00;;;2.42;75.09
36248;BME280;22287;50.824;5.644;2023-02-13T06:01:23;102816.25;;;2.15;76.07
36248;BME280;22287;50.824;5.644;2023-02-13T06:03:50;102806.47;;;2.14;75.34
36248;BME280;22287;50.824;5.644;2023-02-13T06:06:18;102802.22;;;2.03;76.78
36248;BME280;22287;50.824;5.644;2023-02-13T06:08:45;102802.78;;;2.21;75.64
36248;BME280;22287;50.824;5.644;2023-02-13T06:11:11;102805.09;;;2.41;74.73
36248;BME280;22287;50.824;5.644;2023-02-13T06:13:38;102802.75;;;2.24;75.36
36248;BME280;22287;50.824;5.644;2023-02-13T06:16:07;102807.56;;;2.52;75.00
36248;BME280;22287;50.824;5.644;2023-02-13T06:18:34;102803.63;;;2.25;74.68
36248;BME280;22287;50.824;5.644;2023-02-13T06:21:01;102794.13;;;2.09;75.42
36248;BME280;22287;50.824;5.644;2023-02-13T06:23:28;102797.88;;;2.46;74.62
36248;BME280;22287;50.824;5.644;2023-02-13T06:25:55;102794.91;;;2.64;73.70
36248;BME280;22287;50.824;5.644;2023-02-13T06:28:22;102794.06;;;2.62;73.50
36248;BME280;22287;50.824;5.644;2023-02-13T06:30:49;102796.47;;;2.74;73.33
36248;BME280;22287;50.824;5.644;2023-02-13T06:33:16;102787.22;;;2.48;73.55
36248;BME280;22287;50.824;5.644;2023-02-13T06:35:43;102795.09;;;2.54;73.58
36248;BME280;22287;50.824;5.644;2023-02-13T06:38:10;102801.50;;;2.45;73.36
36248;BME280;22287;50.824;5.644;2023-02-13T06:40:36;102815.88;;;2.36;73.51
36248;BME280;22287;50.824;5.644;2023-02-13T06:43:03;102815.38;;;2.13;74.42
36248;BME280;22287;50.824;5.644;2023-02-13T06:45:30;102809.91;;;2.22;73.66
36248;BME280;22287;50.824;5.644;2023-02-13T06:47:57;102818.53;;;2.36;72.07
36248;BME280;22287;50.824;5.644;2023-02-13T06:50:24;102816.88;;;2.29;71.67
36248;BME280;22287;50.824;5.644;2023-02-13T06:52:51;102808.13;;;2.21;71.80
36248;BME280;22287;50.824;5.644;2023-02-13T06:55:18;102814.56;;;2.10;72.70
36248;BME280;22287;50.824;5.644;2023-02-13T06:57:46;102810.00;;;2.16;72.59
36248;BME280;22287;50.824;5.644;2023-02-13T07:00:15;102810.69;;;2.27;72.01
36248;BME280;22287;50.824;5.644;2023-02-13T07:02:44;102814.84;;;2.44;72.07
36248;BME280;22287;50.824;5.644;2023-02-13T07:05:11;102812.16;;;2.44;72.17
36248;BME280;22287;50.824;5.644;2023-02-13T07:07:40;102807.78;;;1.89;72.74
36248;BME280;22287;50.824;5.644;2023-02-13T07:10:10;102813.94;;;1.94;73.36
36248;BME280;22287;50.824;5.644;2023-02-13T07:12:37;102816.84;;;1.77;73.52
36248;BME280;22287;50.824;5.644;2023-02-13T07:15:05;102816.13;;;1.68;74.32
36248;BME280;22287;50.824;5.644;2023-02-13T07:17:32;102815.97;;;1.77;74.35
36248;BME280;22287;50.824;5.644;2023-02-13T07:19:59;102815.97;;;1.77;73.60
36248;BME280;22287;50.824;5.644;2023-02-13T07:22:26;102815.97;;;1.78;73.68
36248;BME280;22287;50.824;5.644;2023-02-13T07:24:53;102816.00;;;1.75;73.29
36248;BME280;22287;50.824;5.644;2023-02-13T07:27:20;102817.63;;;1.86;73.28
36248;BME280;22287;50.824;5.644;2023-02-13T07:29:46;102818.81;;;1.66;73.66
36248;BME280;22287;50.824;5.644;2023-02-13T07:32:14;102817.66;;;1.84;73.88
36248;BME280;22287;50.824;5.644;2023-02-13T07:34:40;102814.34;;;1.68;74.25
36248;BME280;22287;50.824;5.644;2023-02-13T07:37:27;102814.06;;;1.85;73.82
36248;BME280;22287;50.824;5.644;2023-02-13T07:39:54;102814.91;;;1.90;73.29
36248;BME280;22287;50.824;5.644;2023-02-13T07:42:21;102814.69;;;2.02;73.66
36248;BME280;22287;50.824;5.644;2023-02-13T07:44:48;102814.63;;;2.05;73.59
36248;BME280;22287;50.824;5.644;2023-02-13T07:47:15;102826.94;;;2.15;73.40
36248;BME280;22287;50.824;5.644;2023-02-13T07:49:45;102831.28;;;2.19;73.56
36248;BME280;22287;50.824;5.644;2023-02-13T07:52:12;102824.41;;;2.06;73.27
36248;BME280;22287;50.824;5.644;2023-02-13T07:54:39;102832.88;;;2.29;73.64
36248;BME280;22287;50.824;5.644;2023-02-13T07:57:18;102832.78;;;2.35;73.07
36248;BME280;22287;50.824;5.644;2023-02-13T07:59:44;102836.88;;;2.55;73.69
36248;BME280;22287;50.824;5.644;2023-02-13T08:02:12;102828.38;;;2.80;73.17
36248;BME280;22287;50.824;5.644;2023-02-13T08:04:40;102829.22;;;2.84;74.13
36248;BME280;22287;50.824;5.644;2023-02-13T08:07:13;102840.81;;;2.83;75.04
36248;BME280;22287;50.824;5.644;2023-02-13T08:09:42;102829.94;;;2.92;74.62
36248;BME280;22287;50.824;5.644;2023-02-13T08:12:47;102833.06;;;3.12;74.24
36248;BME280;22287;50.824;5.644;2023-02-13T08:15:14;102844.69;;;3.10;74.61
36248;BME280;22287;50.824;5.644;2023-02-13T08:17:41;102839.31;;;3.13;73.80
36248;BME280;22287;50.824;5.644;2023-02-13T08:20:09;102839.53;;;3.02;74.48
36248;BME280;22287;50.824;5.644;2023-02-13T08:22:36;102843.75;;;3.12;74.27
36248;BME280;22287;50.824;5.644;2023-02-13T08:25:05;102848.97;;;3.18;74.54
36248;BME280;22287;50.824;5.644;2023-02-13T08:27:32;102846.19;;;3.26;74.54
36248;BME280;22287;50.824;5.644;2023-02-13T08:29:59;102846.28;;;3.20;74.95
36248;BME280;22287;50.824;5.644;2023-02-13T08:32:27;102845.41;;;3.19;75.26
36248;BME280;22287;50.824;5.644;2023-02-13T08:34:54;102844.56;;;3.17;75.22
36248;BME280;22287;50.824;5.644;2023-02-13T08:37:21;102850.94;;;3.10;75.10
36248;BME280;22287;50.824;5.644;2023-02-13T08:39:47;102850.59;;;2.82;76.26
36248;BME280;22287;50.824;5.644;2023-02-13T08:42:14;102852.53;;;3.20;75.93
36248;BME280;22287;50.824;5.644;2023-02-13T08:44:41;102858.72;;;3.22;75.14
36248;BME280;22287;50.824;5.644;2023-02-13T08:47:08;102850.22;;;3.45;75.46
36248;BME280;22287;50.824;5.644;2023-02-13T08:49:35;102854.75;;;3.80;73.72
36248;BME280;22287;50.824;5.644;2023-02-13T08:52:02;102861.75;;;3.85;73.72
36248;BME280;22287;50.824;5.644;2023-02-13T08:54:30;102864.09;;;4.00;73.01
36248;BME280;22287;50.824;5.644;2023-02-13T08:56:56;102865.59;;;4.47;72.74
36248;BME280;22287;50.824;5.644;2023-02-13T08:59:24;102867.34;;;4.48;71.82
36248;BME280;22287;50.824;5.644;2023-02-13T09:01:51;102871.44;;;4.61;72.53
36248;BME280;22287;50.824;5.644;2023-02-13T09:04:18;102872.97;;;4.71;72.38
36248;BME280;22287;50.824;5.644;2023-02-13T09:06:45;102875.31;;;4.84;72.95
36248;BME280;22287;50.824;5.644;2023-02-13T09:09:11;102872.06;;;5.36;72.96
36248;BME280;22287;50.824;5.644;2023-02-13T09:11:39;102873.97;;;5.30;72.38
36248;BME280;22287;50.824;5.644;2023-02-13T09:14:05;102873.94;;;5.32;72.89
36248;BME280;22287;50.824;5.644;2023-02-13T09:16:32;102879.28;;;5.01;73.24
36248;BME280;22287;50.824;5.644;2023-02-13T09:18:59;102878.75;;;5.19;72.32
36248;BME280;22287;50.824;5.644;2023-02-13T09:21:26;102862.63;;;5.81;71.54
36248;BME280;22287;50.824;5.644;2023-02-13T09:23:53;102867.44;;;5.41;72.05
36248;BME280;22287;50.824;5.644;2023-02-13T09:26:20;102865.44;;;6.06;72.22
36248;BME280;22287;50.824;5.644;2023-02-13T09:28:47;102863.00;;;5.98;72.91
36248;BME280;22287;50.824;5.644;2023-02-13T09:31:19;102859.84;;;5.84;71.81
36248;BME280;22287;50.824;5.644;2023-02-13T09:33:47;102863.56;;;6.08;72.14
36248;BME280;22287;50.824;5.644;2023-02-13T09:36:20;102861.94;;;6.30;72.33
36248;BME280;22287;50.824;5.644;2023-02-13T09:38:51;102852.66;;;6.40;72.08
36248;BME280;22287;50.824;5.644;2023-02-13T09:41:22;102856.69;;;6.53;70.94
36248;BME280;22287;50.824;5.644;2023-02-13T09:43:52;102856.97;;;6.70;70.78
36248;BME280;22287;50.824;5.644;2023-02-13T09:46:32;102851.50;;;6.73;71.26
36248;BME280;22287;50.824;5.644;2023-02-13T09:49:10;102846.72;;;6.81;70.61
36248;BME280;22287;50.824;5.644;2023-02-13T09:51:40;102845.31;;;6.45;71.33
36248;BME280;22287;50.824;5.644;2023-02-13T09:54:13;102859.41;;;5.99;73.22
36248;BME280;22287;50.824;5.644;2023-02-13T09:56:50;102859.56;;;6.47;72.82
36248;BME280;22287;50.824;5.644;2023-02-13T09:59:41;102861.78;;;6.61;72.63
36248;BME280;22287;50.824;5.644;2023-02-13T10:02:22;102859.59;;;6.72;72.73
36248;BME280;22287;50.824;5.644;2023-02-13T10:05:04;102858.91;;;6.91;72.92
36248;BME280;22287;50.824;5.644;2023-02-13T10:13:00;102850.91;;;7.59;71.17
36248;BME280;22287;50.824;5.644;2023-02-13T10:15:50;102853.72;;;7.80;71.06
36248;BME280;22287;50.824;5.644;2023-02-13T10:18:24;102854.81;;;7.97;70.38
36248;BME280;22287;50.824;5.644;2023-02-13T10:20:59;102852.25;;;8.16;70.33
36248;BME280;22287;50.824;5.644;2023-02-13T10:23:41;102860.00;;;8.23;69.94
36248;BME280;22287;50.824;5.644;2023-02-13T10:26:31;102854.28;;;8.09;70.50
36248;BME280;22287;50.824;5.644;2023-02-13T10:29:45;102853.47;;;8.31;70.08
36248;BME280;22287;50.824;5.644;2023-02-13T10:32:42;102852.75;;;8.47;70.13
36248;BME280;22287;50.824;5.644;2023-02-13T10:35:26;102848.41;;;8.85;69.24
36248;BME280;22287;50.824;5.644;2023-02-13T10:37:56;102851.34;;;8.99;69.35
36248;BME280;22287;50.824;5.644;2023-02-13T10:40:46;102844.97;;;9.20;68.40
36248;BME280;22287;50.824;5.644;2023-02-13T10:43:19;102847.41;;;9.26;68.56
36248;BME280;22287;50.824;5.644;2023-02-13T10:46:03;102840.56;;;9.38;67.57
36248;BME280;22287;50.824;5.644;2023-02-13T10:51:39;102843.06;;;9.61;67.63
36248;BME280;22287;50.824;5.644;2023-02-13T10:58:19;102841.03;;;9.85;67.54
36248;BME280;22287;50.824;5.644;2023-02-13T11:01:12;102843.22;;;9.77;67.68
36248;BME280;22287;50.824;5.644;2023-02-13T11:04:11;102833.19;;;9.97;67.02
36248;BME280;22287;50.824;5.644;2023-02-13T11:06:58;102826.50;;;9.69;67.66
36248;BME280;22287;50.824;5.644;2023-02-13T11:09:42;102830.75;;;9.74;67.59
36248;BME280;22287;50.824;5.644;2023-02-13T11:12:30;102834.31;;;9.75;67.39
36248;BME280;22287;50.824;5.644;2023-02-13T11:15:20;102827.22;;;9.54;68.68
36248;BME280;22287;50.824;5.644;2023-02-13T11:17:48;102821.69;;;10.11;65.92
36248;BME280;22287;50.824;5.644;2023-02-13T11:20:38;102813.69;;;10.45;64.75
36248;BME280;22287;50.824;5.644;2023-02-13T11:26:23;102813.84;;;10.77;62.63
36248;BME280;22287;50.824;5.644;2023-02-13T11:29:29;102806.88;;;10.88;62.95
36248;BME280;22287;50.824;5.644;2023-02-13T11:32:33;102796.31;;;10.84;63.20
36248;BME280;22287;50.824;5.644;2023-02-13T11:35:27;102786.13;;;10.89;63.09
36248;BME280;22287;50.824;5.644;2023-02-13T11:40:43;102790.69;;;11.21;62.25
36248;BME280;22287;50.824;5.644;2023-02-13T11:43:17;102781.25;;;11.28;61.31
36248;BME280;22287;50.824;5.644;2023-02-13T11:45:45;102789.41;;;10.78;63.19
36248;BME280;22287;50.824;5.644;2023-02-13T11:48:20;102783.00;;;11.29;61.73
36248;BME280;22287;50.824;5.644;2023-02-13T11:50:54;102786.00;;;11.56;61.09
36248;BME280;22287;50.824;5.644;2023-02-13T11:53:28;102773.72;;;11.82;61.06
36248;BME280;22287;50.824;5.644;2023-02-13T11:56:09;102775.88;;;11.11;62.95
36248;BME280;22287;50.824;5.644;2023-02-13T11:58:37;102775.31;;;11.68;61.22
36248;BME280;22287;50.824;5.644;2023-02-13T12:04:05;102775.56;;;11.33;62.45
36248;BME280;22287;50.824;5.644;2023-02-13T12:06:33;102764.47;;;12.15;59.65
36248;BME280;22287;50.824;5.644;2023-02-13T12:09:11;102761.50;;;12.20;58.44
36248;BME280;22287;50.824;5.644;2023-02-13T12:11:49;102763.72;;;11.66;60.88
36248;BME280;22287;50.824;5.644;2023-02-13T12:14:23;102758.06;;;11.87;59.38
36248;BME280;22287;50.824;5.644;2023-02-13T12:16:59;102754.00;;;12.09;58.37
36248;BME280;22287;50.824;5.644;2023-02-13T12:19:45;102749.28;;;12.57;56.35
36248;BME280;22287;50.824;5.644;2023-02-13T12:22:35;102750.88;;;12.01;57.92
36248;BME280;22287;50.824;5.644;2023-02-13T12:28:16;102745.34;;;12.32;58.22
36248;BME280;22287;50.824;5.644;2023-02-13T12:30:58;102737.78;;;12.81;56.01
36248;BME280;22287;50.824;5.644;2023-02-13T12:39:35;102744.63;;;11.69;58.82
36248;BME280;22287;50.824;5.644;2023-02-13T12:53:02;102721.56;;;12.52;57.31
36248;BME280;22287;50.824;5.644;2023-02-13T13:00:58;102716.78;;;12.27;56.94
36248;BME280;22287;50.824;5.644;2023-02-13T13:03:48;102713.72;;;12.47;56.83
36248;BME280;22287;50.824;5.644;2023-02-13T13:22:31;102701.34;;;13.00;56.68
36248;BME280;22287;50.824;5.644;2023-02-13T13:27:40;102694.56;;;12.92;57.90
36248;BME280;22287;50.824;5.644;2023-02-13T13:30:13;102688.59;;;13.42;55.07
36248;BME280;22287;50.824;5.644;2023-02-13T13:32:42;102685.97;;;13.55;55.21
36248;BME280;22287;50.824;5.644;2023-02-13T13:35:15;102684.78;;;13.59;54.39
36248;BME280;22287;50.824;5.644;2023-02-13T13:37:53;102686.06;;;13.80;54.14
36248;BME280;22287;50.824;5.644;2023-02-13T13:40:46;102679.91;;;13.37;55.52
36248;BME280;22287;50.824;5.644;2023-02-13T13:46:02;102678.72;;;13.41;56.80
36248;BME280;22287;50.824;5.644;2023-02-13T13:51:25;102673.91;;;13.18;56.78
36248;BME280;22287;50.824;5.644;2023-02-13T14:07:25;102657.69;;;13.84;53.83
36248;BME280;22287;50.824;5.644;2023-02-13T14:09:58;102657.28;;;13.90;54.36
36248;BME280;22287;50.824;5.644;2023-02-13T14:14:56;102660.81;;;13.25;56.06
36248;BME280;22287;50.824;5.644;2023-02-13T14:20:37;102655.16;;;13.42;56.06
36248;BME280;22287;50.824;5.644;2023-02-13T14:25:44;102657.00;;;14.07;53.85
36248;BME280;22287;50.824;5.644;2023-02-13T14:36:33;102645.88;;;13.98;54.98
36248;BME280;22287;50.824;5.644;2023-02-13T14:39:06;102647.88;;;13.69;54.94
36248;BME280;22287;50.824;5.644;2023-02-13T14:44:23;102635.25;;;13.68;55.26
36248;BME280;22287;50.824;5.644;2023-02-13T14:46:51;102633.94;;;13.61;55.10
36248;BME280;22287;50.824;5.644;2023-02-13T14:49:23;102640.22;;;13.35;56.30
36248;BME280;22287;50.824;5.644;2023-02-13T14:52:03;102634.59;;;13.65;55.01
36248;BME280;22287;50.824;5.644;2023-02-13T14:54:36;102627.16;;;13.54;55.61
36248;BME280;22287;50.824;5.644;2023-02-13T14:57:09;102633.50;;;13.14;56.59
36248;BME280;22287;50.824;5.644;2023-02-13T14:59:45;102626.59;;;13.49;55.47
36248;BME280;22287;50.824;5.644;2023-02-13T15:02:26;102625.78;;;14.13;54.03
36248;BME280;22287;50.824;5.644;2023-02-13T15:08:02;102620.09;;;13.91;54.63
36248;BME280;22287;50.824;5.644;2023-02-13T15:10:41;102625.19;;;13.56;55.38
36248;BME280;22287;50.824;5.644;2023-02-13T15:13:16;102621.19;;;13.62;54.85
36248;BME280;22287;50.824;5.644;2023-02-13T15:15:49;102622.69;;;13.80;55.53
36248;BME280;22287;50.824;5.644;2023-02-13T15:18:19;102623.13;;;13.47;56.35
36248;BME280;22287;50.824;5.644;2023-02-13T15:20:47;102620.06;;;13.39;55.92
36248;BME280;22287;50.824;5.644;2023-02-13T15:23:21;102615.00;;;13.60;55.98
36248;BME280;22287;50.824;5.644;2023-02-13T15:25:56;102623.81;;;13.63;54.96
36248;BME280;22287;50.824;5.644;2023-02-13T15:28:23;102627.50;;;13.89;54.08
36248;BME280;22287;50.824;5.644;2023-02-13T15:30:58;102620.00;;;13.53;54.94
36248;BME280;22287;50.824;5.644;2023-02-13T15:33:28;102622.50;;;13.29;55.96
36248;BME280;22287;50.824;5.644;2023-02-13T15:36:03;102613.63;;;13.40;55.71
36248;BME280;22287;50.824;5.644;2023-02-13T15:38:33;102616.50;;;13.24;55.85
36248;BME280;22287;50.824;5.644;2023-02-13T15:41:06;102607.75;;;13.33;55.65
36248;BME280;22287;50.824;5.644;2023-02-13T15:43:38;102606.34;;;13.40;55.93
36248;BME280;22287;50.824;5.644;2023-02-13T15:48:44;102614.38;;;13.01;56.99
36248;BME280;22287;50.824;5.644;2023-02-13T15:51:30;102615.91;;;12.78;57.79
36248;BME280;22287;50.824;5.644;2023-02-13T15:53:59;102606.34;;;13.00;57.69
36248;BME280;22287;50.824;5.644;2023-02-13T15:56:27;102599.69;;;12.77;57.69
36248;BME280;22287;50.824;5.644;2023-02-13T15:58:58;102612.31;;;12.35;58.69